createdAt,value
2023-04-02T00:01:19.166Z,99316.91
2023-04-02T00:04:06.361Z,99319.56
2023-04-02T00:06:35.972Z,99316.75
2023-04-02T00:09:29.811Z,99314.25
2023-04-02T00:11:59.485Z,99316.94
2023-04-02T00:14:29.809Z,99334.13
2023-04-02T00:16:59.858Z,99330.31
2023-04-02T00:19:35.169Z,99337.81
2023-04-02T00:22:06.433Z,99344.16
2023-04-02T00:24:34.537Z,99344.84
2023-04-02T00:27:03.818Z,99353.31
2023-04-02T00:29:31.739Z,99352.31
2023-04-02T00:32:00.172Z,99348.31
2023-04-02T00:34:32.631Z,99351.81
2023-04-02T00:37:00.675Z,99366.34
2023-04-02T00:39:31.454Z,99359.78
2023-04-02T00:41:59.940Z,99369.41
2023-04-02T00:44:30.616Z,99365.88
2023-04-02T00:46:58.662Z,99363.75
2023-04-02T00:49:34.912Z,99368.63
2023-04-02T00:52:05.107Z,99371.03
2023-04-02T00:54:39.391Z,99371.75
2023-04-02T00:57:15.481Z,99377.53
2023-04-02T00:59:53.966Z,99376.50
2023-04-02T01:02:26.051Z,99382.00
2023-04-02T01:04:54.831Z,99386.50
2023-04-02T01:07:36.052Z,99389.75
2023-04-02T01:10:26.494Z,99384.41
2023-04-02T01:13:04.733Z,99392.34
2023-04-02T01:15:39.606Z,99393.22
2023-04-02T01:18:21.406Z,99399.03
2023-04-02T01:21:15.653Z,99404.84
2023-04-02T01:24:01.082Z,99414.25
2023-04-02T01:26:46.218Z,99403.19
2023-04-02T01:29:19.082Z,99409.84
2023-04-02T01:31:49.132Z,99421.53
2023-04-02T01:34:19.902Z,99425.03
2023-04-02T01:36:59.975Z,99426.09
2023-04-02T01:39:41.491Z,99438.81
2023-04-02T01:42:17.780Z,99438.34
2023-04-02T01:44:49.396Z,99448.84
2023-04-02T01:47:22.894Z,99447.94
2023-04-02T01:49:53.369Z,99462.00
2023-04-02T01:52:36.126Z,99458.56
2023-04-02T01:55:04.036Z,99458.72
2023-04-02T01:57:32.226Z,99462.59
2023-04-02T02:00:02.617Z,99464.81
2023-04-02T02:02:31.064Z,99470.31
2023-04-02T02:04:58.723Z,99480.72
2023-04-02T02:07:26.959Z,99474.06
2023-04-02T02:09:54.528Z,99476.56
2023-04-02T02:12:23.012Z,99478.41
2023-04-02T02:14:51.729Z,99481.81
2023-04-02T02:17:27.813Z,99483.44
2023-04-02T02:19:59.503Z,99500.09
2023-04-02T02:22:31.536Z,99486.19
2023-04-02T02:25:00.950Z,99501.38
2023-04-02T02:27:58.613Z,99516.72
2023-04-02T02:30:30.406Z,99519.28
2023-04-02T02:33:06.821Z,99511.13
2023-04-02T02:35:40.922Z,99520.34
2023-04-02T02:38:27.951Z,99531.53
2023-04-02T02:41:01.381Z,99531.84
2023-04-02T02:43:30.769Z,99534.56
2023-04-02T02:45:58.910Z,99541.81
2023-04-02T02:48:36.256Z,99546.47
2023-04-02T02:51:08.303Z,99549.16
2023-04-02T02:53:45.483Z,99551.28
2023-04-02T02:56:13.807Z,99555.88
2023-04-02T02:58:42.019Z,99563.88
2023-04-02T03:01:10.155Z,99569.75
2023-04-02T03:03:40.586Z,99571.56
2023-04-02T03:06:11.295Z,99582.47
2023-04-02T03:08:44.215Z,99583.31
2023-04-02T03:11:16.890Z,99590.84
2023-04-02T03:13:49.281Z,99604.25
2023-04-02T03:16:21.540Z,99603.72
2023-04-02T03:18:54.488Z,99610.47
2023-04-02T03:21:28.135Z,99611.06
2023-04-02T03:24:00.822Z,99611.69
2023-04-02T03:26:35.052Z,99612.69
2023-04-02T03:29:09.249Z,99619.44
2023-04-02T03:31:40.085Z,99620.78
2023-04-02T03:34:16.618Z,99637.34
2023-04-02T03:36:52.344Z,99635.94
2023-04-02T03:39:25.896Z,99633.03
2023-04-02T03:41:58.893Z,99650.75
2023-04-02T03:44:31.936Z,99649.38
2023-04-02T03:47:06.077Z,99652.88
2023-04-02T03:49:41.414Z,99656.75
2023-04-02T03:52:12.484Z,99662.91
2023-04-02T03:54:41.281Z,99661.81
2023-04-02T03:57:30.107Z,99664.72
2023-04-02T04:00:03.994Z,99672.69
2023-04-02T04:02:40.998Z,99680.00
2023-04-02T04:05:21.847Z,99678.44
2023-04-02T04:07:53.617Z,99687.81
2023-04-02T04:10:25.877Z,99692.22
2023-04-02T04:12:57.452Z,99697.53
2023-04-02T04:15:30.882Z,99707.75
2023-04-02T04:18:02.910Z,99710.00
2023-04-02T04:20:40.519Z,99716.19
2023-04-02T04:23:19.442Z,99722.19
2023-04-02T04:25:47.809Z,99724.44
2023-04-02T04:28:23.458Z,99731.44
2023-04-02T04:30:57.242Z,99738.16
2023-04-02T04:33:28.120Z,99742.47
2023-04-02T04:36:00.110Z,99753.41
2023-04-02T04:38:32.453Z,99750.19
2023-04-02T04:41:04.968Z,99751.16
2023-04-02T04:43:42.883Z,99756.63
2023-04-02T04:46:15.122Z,99764.59
2023-04-02T04:48:50.649Z,99765.16
2023-04-02T04:51:24.470Z,99771.53
2023-04-02T04:53:54.616Z,99774.06
2023-04-02T04:56:26.587Z,99776.88
2023-04-02T04:59:05.522Z,99786.97
2023-04-02T05:01:40.892Z,99788.94
2023-04-02T05:04:20.156Z,99799.00
2023-04-02T05:06:55.850Z,99796.78
2023-04-02T05:09:35.361Z,99806.06
2023-04-02T05:12:17.552Z,99803.53
2023-04-02T05:14:51.550Z,99815.16
2023-04-02T05:17:27.044Z,99815.88
2023-04-02T05:20:00.401Z,99822.31
2023-04-02T05:22:41.437Z,99828.75
2023-04-02T05:25:19.219Z,99826.91
2023-04-02T05:27:56.633Z,99833.22
2023-04-02T05:30:50.413Z,99835.84
2023-04-02T05:33:22.928Z,99843.13
2023-04-02T05:35:59.969Z,99843.97
2023-04-02T05:38:33.346Z,99854.16
2023-04-02T05:41:04.212Z,99851.09
2023-04-02T05:43:40.590Z,99866.78
2023-04-02T05:46:17.541Z,99864.31
2023-04-02T05:48:54.705Z,99866.97
2023-04-02T05:51:28.918Z,99871.72
2023-04-02T05:54:03.797Z,99874.22
2023-04-02T05:56:39.185Z,99870.47
2023-04-02T05:59:15.187Z,99874.38
2023-04-02T06:01:46.995Z,99882.81
2023-04-02T06:04:22.780Z,99881.97
2023-04-02T06:06:59.045Z,99880.81
2023-04-02T06:09:44.006Z,99887.81
2023-04-02T06:12:28.293Z,99887.13
2023-04-02T06:14:58.118Z,99896.09
2023-04-02T06:17:43.335Z,99895.81
2023-04-02T06:20:19.193Z,99913.44
2023-04-02T06:23:00.132Z,99906.59
2023-04-02T06:25:39.753Z,99917.06
2023-04-02T06:28:27.062Z,99923.34
2023-04-02T06:31:06.999Z,99931.28
2023-04-02T06:33:37.848Z,99928.06
2023-04-02T06:36:16.468Z,99943.06
2023-04-02T06:38:48.576Z,99938.84
2023-04-02T06:41:21.206Z,99948.63
2023-04-02T06:43:58.399Z,99948.16
2023-04-02T06:46:34.493Z,99953.91
2023-04-02T06:49:12.671Z,99951.78
2023-04-02T06:51:42.868Z,99961.19
2023-04-02T06:54:23.320Z,99967.06
2023-04-02T06:57:06.731Z,99978.03
2023-04-02T06:59:41.890Z,99975.13
2023-04-02T07:02:34.346Z,99978.28
2023-04-02T07:05:08.444Z,99984.53
2023-04-02T07:07:41.316Z,99985.78
2023-04-02T07:10:19.294Z,99987.50
2023-04-02T07:12:51.792Z,99991.16
2023-04-02T07:15:22.616Z,99997.41
2023-04-02T07:18:00.670Z,100002.31
2023-04-02T07:20:35.896Z,99999.13
2023-04-02T07:23:24.298Z,100009.53
2023-04-02T07:25:56.053Z,100013.09
2023-04-02T07:28:34.868Z,100016.28
2023-04-02T07:31:11.227Z,100020.78
2023-04-02T07:33:44.696Z,100024.59
2023-04-02T07:36:28.679Z,100025.84
2023-04-02T07:39:00.512Z,100027.41
2023-04-02T07:41:37.126Z,100040.81
2023-04-02T07:44:14.090Z,100041.59
2023-04-02T07:46:45.317Z,100050.09
2023-04-02T07:49:13.500Z,100055.84
2023-04-02T07:51:45.238Z,100056.66
2023-04-02T07:54:18.566Z,100057.56
2023-04-02T07:57:05.376Z,100067.94
2023-04-02T07:59:36.088Z,100072.34
2023-04-02T08:02:03.629Z,100074.81
2023-04-02T08:04:32.028Z,100081.41
2023-04-02T08:06:59.903Z,100086.56
2023-04-02T08:09:27.921Z,100090.63
2023-04-02T08:11:58.417Z,100095.75
2023-04-02T08:14:29.432Z,100095.19
2023-04-02T08:16:58.613Z,100096.28
2023-04-02T08:19:27.082Z,100107.09
2023-04-02T08:21:54.814Z,100103.84
2023-04-02T08:24:23.247Z,100116.34
2023-04-02T08:26:51.386Z,100121.94
2023-04-02T08:29:19.642Z,100120.72
2023-04-02T08:31:47.240Z,100125.78
2023-04-02T08:34:17.323Z,100130.41
2023-04-02T08:36:44.884Z,100137.63
2023-04-02T08:39:12.848Z,100135.44
2023-04-02T08:41:47.357Z,100141.91
2023-04-02T08:44:30.606Z,100142.34
2023-04-02T08:47:03.285Z,100141.38
2023-04-02T08:49:37.929Z,100147.03
2023-04-02T08:52:05.404Z,100154.56
2023-04-02T08:54:35.745Z,100155.19
2023-04-02T08:57:07.830Z,100145.81
2023-04-02T08:59:36.533Z,100153.88
2023-04-02T09:02:26.476Z,100152.84
2023-04-02T09:04:57.181Z,100149.50
2023-04-02T09:07:25.941Z,100170.47
2023-04-02T09:09:54.117Z,100156.66
2023-04-02T09:12:26.617Z,100163.72
2023-04-02T09:15:06.124Z,100164.25
2023-04-02T09:17:42.814Z,100167.22
2023-04-02T09:20:17.879Z,100169.00
2023-04-02T09:22:47.359Z,100169.75
2023-04-02T09:25:19.248Z,100179.53
2023-04-02T09:27:48.856Z,100185.88
2023-04-02T09:30:30.059Z,100177.59
2023-04-02T09:32:58.852Z,100187.28
2023-04-02T09:35:29.884Z,100191.75
2023-04-02T09:38:19.451Z,100196.56
2023-04-02T09:40:50.154Z,100203.91
2023-04-02T09:43:19.138Z,100205.81
2023-04-02T09:45:57.945Z,100202.19
2023-04-02T09:48:28.605Z,100209.31
2023-04-02T09:51:13.159Z,100210.63
2023-04-02T09:53:42.716Z,100207.91
2023-04-02T09:56:17.502Z,100223.53
2023-04-02T09:59:01.411Z,100212.72
2023-04-02T10:01:31.210Z,100227.03
2023-04-02T10:03:59.253Z,100228.59
2023-04-02T10:06:30.443Z,100234.47
2023-04-02T10:08:58.017Z,100242.34
2023-04-02T10:11:36.523Z,100244.06
2023-04-02T10:14:19.168Z,100248.34
2023-04-02T10:16:51.476Z,100253.34
2023-04-02T10:19:26.431Z,100260.69
2023-04-02T10:21:57.996Z,100263.75
2023-04-02T10:24:28.741Z,100265.72
2023-04-02T10:27:09.980Z,100271.16
2023-04-02T10:30:11.437Z,100273.59
2023-04-02T10:32:44.566Z,100284.59
2023-04-02T10:35:19.833Z,100278.88
2023-04-02T10:38:26.092Z,100277.63
2023-04-02T10:41:00.644Z,100280.50
2023-04-02T10:44:06.179Z,100282.56
2023-04-02T10:46:48.721Z,100284.94
2023-04-02T10:49:25.550Z,100285.09
2023-04-02T10:52:00.054Z,100288.31
2023-04-02T10:54:37.003Z,100287.72
2023-04-02T10:57:12.709Z,100286.81
2023-04-02T10:59:46.578Z,100292.28
2023-04-02T11:02:30.709Z,100304.91
2023-04-02T11:05:04.641Z,100306.88
2023-04-02T11:07:38.966Z,100305.75
2023-04-02T11:10:08.027Z,100314.28
2023-04-02T11:12:43.597Z,100317.41
2023-04-02T11:15:16.109Z,100317.34
2023-04-02T11:17:44.090Z,100315.97
2023-04-02T11:20:42.360Z,100320.59
2023-04-02T11:23:13.486Z,100328.31
2023-04-02T11:25:42.705Z,100327.34
2023-04-02T11:28:26.137Z,100324.00
2023-04-02T11:30:55.021Z,100336.50
2023-04-02T11:33:44.733Z,100339.03
2023-04-02T11:36:50.982Z,100346.22
2023-04-02T11:39:41.731Z,100345.03
2023-04-02T11:42:27.507Z,100350.38
2023-04-02T11:44:59.778Z,100357.38
2023-04-02T11:47:28.023Z,100357.03
2023-04-02T11:50:04.578Z,100365.63
2023-04-02T11:52:36.604Z,100365.66
2023-04-02T11:55:24.394Z,100374.00
2023-04-02T11:58:22.366Z,100377.78
2023-04-02T12:01:25.749Z,100371.81
2023-04-02T12:04:27.851Z,100384.50
2023-04-02T12:07:11.176Z,100379.28
2023-04-02T12:09:45.630Z,100390.94
2023-04-02T12:12:18.869Z,100401.44
2023-04-02T12:14:48.698Z,100399.13
2023-04-02T12:17:24.223Z,100391.28
2023-04-02T12:19:55.258Z,100398.38
2023-04-02T12:22:24.916Z,100406.41
2023-04-02T12:24:56.414Z,100400.09
2023-04-02T12:27:28.897Z,100398.94
2023-04-02T12:30:12.609Z,100403.16
2023-04-02T12:32:42.067Z,100410.44
2023-04-02T12:35:28.186Z,100418.31
2023-04-02T12:37:55.874Z,100419.44
2023-04-02T12:40:24.995Z,100416.50
2023-04-02T12:42:52.973Z,100423.56
2023-04-02T12:45:28.561Z,100414.38
2023-04-02T12:48:04.157Z,100425.53
2023-04-02T12:50:34.343Z,100422.31
2023-04-02T12:53:02.267Z,100420.91
2023-04-02T12:55:30.142Z,100426.41
2023-04-02T12:57:58.961Z,100425.25
2023-04-02T13:00:34.304Z,100427.84
2023-04-02T13:03:16.613Z,100431.97
2023-04-02T13:05:49.521Z,100436.19
2023-04-02T13:08:22.806Z,100445.13
2023-04-02T13:10:56.282Z,100453.47
2023-04-02T13:13:28.870Z,100444.72
2023-04-02T13:16:24.077Z,100452.91
2023-04-02T13:19:08.901Z,100449.47
2023-04-02T13:21:36.922Z,100448.38
2023-04-02T13:24:04.708Z,100449.22
2023-04-02T13:26:32.757Z,100452.56
2023-04-02T13:29:01.916Z,100454.53
2023-04-02T13:31:30.539Z,100456.56
2023-04-02T13:33:59.795Z,100456.28
2023-04-02T13:36:28.377Z,100454.81
2023-04-02T13:38:55.947Z,100458.28
2023-04-02T13:41:26.149Z,100467.78
2023-04-02T13:43:55.238Z,100464.75
2023-04-02T13:46:25.274Z,100468.25
2023-04-02T13:48:53.824Z,100475.28
2023-04-02T13:51:27.483Z,100479.44
2023-04-02T13:53:57.864Z,100477.09
2023-04-02T13:56:25.828Z,100475.69
2023-04-02T13:58:53.478Z,100477.25
2023-04-02T14:01:24.576Z,100478.78
2023-04-02T14:03:53.419Z,100474.72
2023-04-02T14:06:37.297Z,100489.47
2023-04-02T14:09:13.187Z,100493.34
2023-04-02T14:11:50.792Z,100488.88
2023-04-02T14:14:31.509Z,100502.66
2023-04-02T14:17:11.114Z,100503.31
2023-04-02T14:19:58.161Z,100510.16
2023-04-02T14:22:40.570Z,100502.25
2023-04-02T14:25:18.258Z,100507.56
2023-04-02T14:27:52.110Z,100512.53
2023-04-02T14:30:27.731Z,100513.66
2023-04-02T14:33:05.351Z,100515.78
2023-04-02T14:35:37.310Z,100515.53
2023-04-02T14:38:17.315Z,100519.19
2023-04-02T14:40:47.408Z,100520.84
2023-04-02T14:43:19.684Z,100526.03
2023-04-02T14:45:56.979Z,100527.22
2023-04-02T14:48:43.873Z,100541.81
2023-04-02T14:51:17.432Z,100533.19
2023-04-02T14:54:04.742Z,100532.50
2023-04-02T14:56:39.289Z,100534.94
2023-04-02T14:59:21.417Z,100541.63
2023-04-02T15:01:52.455Z,100544.50
2023-04-02T15:04:27.169Z,100540.78
2023-04-02T15:06:59.641Z,100545.19
2023-04-02T15:09:34.062Z,100547.44
2023-04-02T15:12:07.349Z,100547.50
2023-04-02T15:14:41.530Z,100553.09
2023-04-02T15:17:11.036Z,100558.44
2023-04-02T15:19:39.932Z,100558.72
2023-04-02T15:22:23.048Z,100560.31
2023-04-02T15:25:01.789Z,100563.97
2023-04-02T15:27:51.886Z,100560.69
2023-04-02T15:30:24.887Z,100573.91
2023-04-02T15:32:54.468Z,100567.47
2023-04-02T15:35:32.218Z,100564.81
2023-04-02T15:38:05.047Z,100572.94
2023-04-02T15:40:48.451Z,100577.28
2023-04-02T15:43:22.134Z,100579.25
2023-04-02T15:45:59.598Z,100581.41
2023-04-02T15:48:41.201Z,100581.38
2023-04-02T15:51:20.310Z,100579.91
2023-04-02T15:54:02.344Z,100587.69
2023-04-02T15:56:44.267Z,100581.63
2023-04-02T15:59:39.666Z,100595.50
2023-04-02T16:02:29.285Z,100596.25
2023-04-02T16:05:02.232Z,100598.09
2023-04-02T16:07:51.739Z,100599.25
2023-04-02T16:10:38.063Z,100602.38
2023-04-02T16:13:19.295Z,100601.97
2023-04-02T16:15:52.463Z,100610.34
2023-04-02T16:18:33.010Z,100611.53
2023-04-02T16:21:02.684Z,100616.06
2023-04-02T16:23:35.272Z,100619.03
2023-04-02T16:26:11.055Z,100620.38
2023-04-02T16:28:46.677Z,100623.41
2023-04-02T16:31:21.213Z,100627.91
2023-04-02T16:33:58.849Z,100635.56
2023-04-02T16:36:35.136Z,100638.31
2023-04-02T16:39:12.915Z,100644.47
2023-04-02T16:41:52.581Z,100650.72
2023-04-02T16:44:33.247Z,100646.59
2023-04-02T16:47:14.890Z,100655.84
2023-04-02T16:49:54.370Z,100657.06
2023-04-02T16:52:36.639Z,100661.19
2023-04-02T16:55:23.380Z,100661.13
2023-04-02T16:58:01.035Z,100663.00
2023-04-02T17:00:40.542Z,100665.53
2023-04-02T17:03:31.675Z,100674.53
2023-04-02T17:06:06.263Z,100677.00
2023-04-02T17:08:42.349Z,100682.88
2023-04-02T17:11:20.846Z,100681.69
2023-04-02T17:13:57.378Z,100690.00
2023-04-02T17:16:35.499Z,100692.88
2023-04-02T17:19:09.791Z,100703.69
2023-04-02T17:21:40.054Z,100702.44
2023-04-02T17:24:19.965Z,100711.88
2023-04-02T17:26:51.719Z,100699.16
2023-04-02T17:29:24.466Z,100715.81
2023-04-02T17:32:00.068Z,100719.22
2023-04-02T17:34:29.378Z,100720.28
2023-04-02T17:37:08.882Z,100724.63
2023-04-02T17:39:45.369Z,100722.84
2023-04-02T17:42:21.032Z,100721.97
2023-04-02T17:45:01.185Z,100725.97
2023-04-02T17:47:40.953Z,100735.44
2023-04-02T17:50:38.671Z,100732.34
2023-04-02T17:53:19.523Z,100732.09
2023-04-02T17:55:58.059Z,100746.00
2023-04-02T17:58:43.621Z,100747.34
2023-04-02T18:01:18.083Z,100735.97
2023-04-02T18:03:53.813Z,100751.56
2023-04-02T18:06:25.504Z,100750.91
2023-04-02T18:09:18.744Z,100755.50
2023-04-02T18:11:59.840Z,100758.78
2023-04-02T18:14:43.646Z,100767.97
2023-04-02T18:17:21.114Z,100770.25
2023-04-02T18:19:58.022Z,100781.25
2023-04-02T18:22:36.263Z,100780.28
2023-04-02T18:25:26.502Z,100780.28
2023-04-02T18:28:10.303Z,100782.19
2023-04-02T18:30:46.051Z,100786.69
2023-04-02T18:33:29.324Z,100797.66
2023-04-02T18:36:06.720Z,100798.00
2023-04-02T18:38:42.852Z,100805.19
2023-04-02T18:41:37.026Z,100803.50
2023-04-02T18:44:20.450Z,100818.72
2023-04-02T18:46:52.121Z,100809.47
2023-04-02T18:49:28.650Z,100816.22
2023-04-02T18:52:01.540Z,100824.72
2023-04-02T18:54:31.973Z,100828.47
2023-04-02T18:57:02.306Z,100831.28
2023-04-02T18:59:38.182Z,100824.25
2023-04-02T19:02:26.065Z,100840.25
2023-04-02T19:05:01.346Z,100836.88
2023-04-02T19:07:37.074Z,100834.47
2023-04-02T19:10:13.974Z,100840.06
2023-04-02T19:12:42.050Z,100844.63
2023-04-02T19:15:16.013Z,100844.31
2023-04-02T19:17:46.966Z,100849.66
2023-04-02T19:20:24.960Z,100848.53
2023-04-02T19:23:02.764Z,100846.44
2023-04-02T19:25:42.772Z,100850.84
2023-04-02T19:28:20.834Z,100857.94
2023-04-02T19:30:56.500Z,100854.81
2023-04-02T19:33:36.781Z,100852.31
2023-04-02T19:36:16.381Z,100863.63
2023-04-02T19:38:55.205Z,100856.94
2023-04-02T19:41:29.845Z,100860.97
2023-04-02T19:43:57.849Z,100867.16
2023-04-02T19:46:26.631Z,100862.78
2023-04-02T19:49:04.507Z,100862.66
2023-04-02T19:51:32.077Z,100857.94
2023-04-02T19:54:01.458Z,100868.59
2023-04-02T19:56:29.039Z,100875.38
2023-04-02T19:58:58.284Z,100876.56
2023-04-02T20:01:28.027Z,100881.75
2023-04-02T20:03:56.305Z,100879.22
2023-04-02T20:06:23.811Z,100881.41
2023-04-02T20:08:51.973Z,100883.72
2023-04-02T20:11:21.205Z,100877.31
2023-04-02T20:13:49.198Z,100888.72
2023-04-02T20:16:17.099Z,100890.03
2023-04-02T20:18:47.972Z,100888.94
2023-04-02T20:21:27.449Z,100887.84
2023-04-02T20:23:55.679Z,100898.31
2023-04-02T20:26:24.668Z,100890.22
2023-04-02T20:28:52.887Z,100893.72
2023-04-02T20:31:20.404Z,100898.94
2023-04-02T20:33:48.509Z,100904.22
2023-04-02T20:36:17.579Z,100911.44
2023-04-02T20:38:45.907Z,100911.69
2023-04-02T20:41:13.614Z,100917.44
2023-04-02T20:43:43.169Z,100916.88
2023-04-02T20:46:12.363Z,100928.50
2023-04-02T20:48:40.935Z,100924.31
2023-04-02T20:51:11.328Z,100922.03
2023-04-02T20:53:39.346Z,100928.25
2023-04-02T20:56:09.011Z,100930.56
2023-04-02T20:58:38.329Z,100934.47
2023-04-02T21:01:19.327Z,100938.13
2023-04-02T21:03:48.050Z,100941.97
2023-04-02T21:06:18.836Z,100944.41
2023-04-02T21:08:47.908Z,100944.41
2023-04-02T21:11:16.290Z,100951.97
2023-04-02T21:13:45.135Z,100945.66
2023-04-02T21:16:16.709Z,100956.84
2023-04-02T21:18:45.631Z,100949.94
2023-04-02T21:21:14.548Z,100950.69
2023-04-02T21:23:43.994Z,100947.38
2023-04-02T21:26:14.151Z,100952.59
2023-04-02T21:28:43.484Z,100968.06
2023-04-02T21:31:16.908Z,100964.13
2023-04-02T21:33:47.124Z,100972.41
2023-04-02T21:36:16.829Z,100973.22
2023-04-02T21:38:46.651Z,100973.44
2023-04-02T21:41:15.767Z,100970.59
2023-04-02T21:43:44.504Z,100973.91
2023-04-02T21:46:12.563Z,100977.41
2023-04-02T21:48:42.088Z,100978.91
2023-04-02T21:51:11.733Z,100984.75
2023-04-02T21:53:40.385Z,100990.50
2023-04-02T21:56:11.289Z,100990.41
2023-04-02T21:58:39.512Z,100988.25
2023-04-02T22:01:11.347Z,100996.72
2023-04-02T22:03:47.361Z,101004.53
2023-04-02T22:06:16.762Z,100999.72
2023-04-02T22:08:45.194Z,101000.16
2023-04-02T22:11:15.242Z,101007.69
2023-04-02T22:13:45.767Z,101008.44
2023-04-02T22:16:15.295Z,101000.69
2023-04-02T22:18:44.483Z,101006.94
2023-04-02T22:21:16.189Z,101000.66
2023-04-02T22:23:44.862Z,101012.69
2023-04-02T22:26:13.784Z,101010.00
2023-04-02T22:28:41.966Z,101017.34
2023-04-02T22:31:13.027Z,101017.47
2023-04-02T22:33:41.452Z,101027.88
2023-04-02T22:36:09.300Z,101017.88
2023-04-02T22:38:39.218Z,101026.91
2023-04-02T22:41:08.781Z,101030.44
2023-04-02T22:43:37.689Z,101025.56
2023-04-02T22:46:07.149Z,101031.34
2023-04-02T22:48:35.930Z,101020.44
2023-04-02T22:51:03.775Z,101032.88
2023-04-02T22:53:31.785Z,101032.00
2023-04-02T22:56:03.599Z,101030.16
2023-04-02T22:58:31.661Z,101040.88
2023-04-02T23:01:03.861Z,101043.06
2023-04-02T23:03:31.936Z,101043.75
2023-04-02T23:06:00.422Z,101050.91
2023-04-02T23:08:28.830Z,101046.50
2023-04-02T23:11:01.663Z,101053.78
2023-04-02T23:13:31.299Z,101056.47
2023-04-02T23:16:00.821Z,101057.19
2023-04-02T23:18:29.237Z,101063.53
2023-04-02T23:20:56.633Z,101070.19
2023-04-02T23:23:25.801Z,101063.44
2023-04-02T23:26:03.543Z,101066.06
2023-04-02T23:28:34.229Z,101069.56
2023-04-02T23:31:02.812Z,101068.72
2023-04-02T23:33:30.977Z,101067.63
2023-04-02T23:35:59.063Z,101062.03
2023-04-02T23:38:27.547Z,101070.84
2023-04-02T23:40:54.941Z,101065.84
2023-04-02T23:43:23.263Z,101067.34
2023-04-02T23:45:52.429Z,101071.16
2023-04-02T23:48:20.543Z,101067.47
2023-04-02T23:50:48.300Z,101062.06
2023-04-02T23:53:16.519Z,101060.81
2023-04-02T23:55:44.125Z,101071.22
2023-04-02T23:58:12.094Z,101074.19
